Time;durP1;ratioP1;P1;durP2;ratioP2;P2;SDS_P1;SDS_P2;PMS_P1;PMS_P2;Temp;Humidity;BMP_temperature;BMP_pressure;BME280_temperature;BME280_humidity;BME280_pressure;Samples;Min_cycle;Max_cycle;Signal;HPM_P1;HPM_P2
2022/03/06 00:00:49;;;;;;;24.95;11.63;;;;;;;;;;4994686;28;20022;-68
2022/03/06 00:03:14;;;;;;;37.45;12.38;;;;;;;;;;4994004;28;20030;-68
2022/03/06 00:05:39;;;;;;;31.85;12.85;;;;;;;;;;4996130;28;20038;-68
2022/03/06 00:08:05;;;;;;;31.08;11.27;;;;;;;;;;4998248;28;20033;-66
2022/03/06 00:10:30;;;;;;;28.15;11.05;;;;;;;;;;5003005;28;20022;-67
2022/03/06 00:12:55;;;;;;;29.40;12.13;;;;;;;;;;4995254;28;20054;-69
2022/03/06 00:15:26;;;;;;;21.95;11.00;;;;;;;;;;4994685;28;20026;-69
2022/03/06 00:17:51;;;;;;;;;;;;;;;;;;4995806;28;20109;-68
2022/03/06 00:20:16;;;;;;;28.38;12.23;;;;;;;;;;4998212;28;20336;-69
2022/03/06 00:22:41;;;;;;;26.38;11.38;;;;;;;;;;4993799;28;20795;-69
2022/03/06 00:25:07;;;;;;;28.95;11.95;;;;;;;;;;5000148;28;20018;-69
2022/03/06 00:27:32;;;;;;;30.63;12.25;;;;;;;;;;5000292;28;20036;-69
2022/03/06 00:29:58;;;;;;;28.88;12.20;;;;;;;;;;4994144;28;20080;-69
2022/03/06 00:32:23;;;;;;;30.63;11.95;;;;;;;;;;4994637;28;20030;-68
2022/03/06 00:34:48;;;;;;;25.92;11.13;;;;;;;;;;4994677;28;20029;-69
2022/03/06 00:37:14;;;;;;;33.38;11.35;;;;;;;;;;4993340;28;20031;-69
2022/03/06 00:39:39;;;;;;;30.38;11.68;;;;;;;;;;5001042;28;20168;-69
2022/03/06 00:42:04;;;;;;;24.60;10.98;;;;;;;;;;4996036;28;20022;-69
2022/03/06 00:44:29;;;;;;;29.48;11.40;;;;;;;;;;4992977;28;20078;-69
2022/03/06 00:46:55;;;;;;;27.63;11.05;;;;;;;;;;5001362;28;20069;-68
2022/03/06 00:49:20;;;;;;;26.60;12.02;;;;;;;;;;4995812;28;20026;-68
2022/03/06 00:51:45;;;;;;;28.80;12.25;;;;;;;;;;4999768;28;20018;-68
2022/03/06 00:54:10;;;;;;;27.05;11.57;;;;;;;;;;4996687;28;20026;-68
2022/03/06 00:56:35;;;;;;;27.70;11.18;;;;;;;;;;4993367;28;20025;-68
2022/03/06 00:59:01;;;;;;;26.27;11.65;;;;;;;;;;5003692;28;20026;-67
2022/03/06 01:01:26;;;;;;;36.50;14.25;;;;;;;;;;4997883;28;20026;-68
2022/03/06 01:03:52;;;;;;;38.40;13.90;;;;;;;;;;4992373;28;20447;-68
2022/03/06 01:06:17;;;;;;;37.80;14.13;;;;;;;;;;4992561;28;20022;-68
2022/03/06 01:08:42;;;;;;;37.58;12.15;;;;;;;;;;5005493;28;20038;-67
2022/03/06 01:11:07;;;;;;;33.58;13.10;;;;;;;;;;5011518;28;20036;-67
2022/03/06 01:13:32;;;;;;;28.60;11.82;;;;;;;;;;4982810;28;20031;-67
2022/03/06 01:15:57;;;;;;;33.30;12.77;;;;;;;;;;4991828;28;20050;-67
2022/03/06 01:18:24;;;;;;;34.08;12.20;;;;;;;;;;4993943;28;20030;-67
2022/03/06 01:20:49;;;;;;;27.77;12.50;;;;;;;;;;4992602;28;20462;-67
2022/03/06 01:23:15;;;;;;;34.22;11.90;;;;;;;;;;4992458;28;20101;-67
2022/03/06 01:25:40;;;;;;;27.73;11.75;;;;;;;;;;4992447;28;20015;-67
2022/03/06 01:28:05;;;;;;;36.80;13.30;;;;;;;;;;5003206;28;20037;-67
2022/03/06 01:30:30;;;;;;;31.45;13.05;;;;;;;;;;5005164;28;20019;-67
2022/03/06 01:32:56;;;;;;;29.88;13.25;;;;;;;;;;4991689;28;20034;-67
2022/03/06 01:35:21;;;;;;;33.53;14.02;;;;;;;;;;4992385;28;20023;-67
2022/03/06 01:37:47;;;;;;;37.15;13.48;;;;;;;;;;4992099;28;20406;-67
2022/03/06 01:40:12;;;;;;;40.55;13.98;;;;;;;;;;4992765;28;20049;-67
2022/03/06 01:42:42;;;;;;;34.85;13.70;;;;;;;;;;4991996;28;20022;-68
2022/03/06 01:45:08;;;;;;;33.47;13.98;;;;;;;;;;5004033;28;20375;-67
2022/03/06 01:47:45;;;;;;;32.08;13.27;;;;;;;;;;5004826;28;20145;-67
2022/03/06 01:50:13;;;;;;;30.10;12.70;;;;;;;;;;4990823;28;20026;-67
2022/03/06 01:52:39;;;;;;;32.15;13.48;;;;;;;;;;4991960;28;20080;-67
2022/03/06 01:55:04;;;;;;;35.75;12.43;;;;;;;;;;4990183;28;20545;-68
2022/03/06 01:57:30;;;;;;;30.30;12.70;;;;;;;;;;4993213;28;20030;-67
2022/03/06 01:59:55;;;;;;;35.53;12.40;;;;;;;;;;5004944;28;20632;-67
2022/03/06 02:02:20;;;;;;;33.45;13.63;;;;;;;;;;4991699;28;20085;-67
2022/03/06 02:04:46;;;;;;;33.63;12.48;;;;;;;;;;4991121;28;20413;-67
2022/03/06 02:07:11;;;;;;;28.35;12.20;;;;;;;;;;4991200;28;20084;-67
2022/03/06 02:09:36;;;;;;;30.50;13.13;;;;;;;;;;4991672;28;20022;-67
2022/03/06 02:14:46;;;;;;;32.22;12.38;;;;;;;;;;4998177;28;20442;-67
2022/03/06 02:17:11;;;;;;;26.65;12.00;;;;;;;;;;5009847;28;20022;-68
2022/03/06 02:19:55;;;;;;;32.20;13.02;;;;;;;;;;4991335;28;20129;-67
2022/03/06 02:22:33;;;;;;;26.88;11.77;;;;;;;;;;4990292;28;20026;-67
2022/03/06 02:25:00;;;;;;;33.60;13.80;;;;;;;;;;4991142;28;20026;-67
2022/03/06 02:27:25;;;;;;;31.10;13.02;;;;;;;;;;4992121;28;20038;-67
2022/03/06 02:29:51;;;;;;;35.90;13.55;;;;;;;;;;4998210;28;20018;-67
2022/03/06 02:32:17;;;;;;;33.85;12.52;;;;;;;;;;5001244;28;20022;-67
2022/03/06 02:34:44;;;;;;;31.38;13.07;;;;;;;;;;5001942;28;20482;-67
2022/03/06 02:37:09;;;;;;;32.55;12.43;;;;;;;;;;4999153;28;20024;-67
2022/03/06 02:39:35;;;;;;;40.22;13.55;;;;;;;;;;4991160;28;20097;-68
2022/03/06 02:42:01;;;;;;;32.53;12.70;;;;;;;;;;4991112;28;20034;-66
2022/03/06 02:44:27;;;;;;;35.10;12.57;;;;;;;;;;4991106;28;20030;-67
2022/03/06 02:46:52;;;;;;;32.83;13.82;;;;;;;;;;4993193;28;20025;-68
2022/03/06 02:49:18;;;;;;;35.50;13.52;;;;;;;;;;4990967;28;20027;-68
2022/03/06 02:51:44;;;;;;;32.40;13.23;;;;;;;;;;5005443;28;20192;-66
2022/03/06 02:54:10;;;;;;;33.33;13.15;;;;;;;;;;4995698;28;20022;-66
2022/03/06 02:56:36;;;;;;;35.13;13.85;;;;;;;;;;5009077;28;20104;-66
2022/03/06 02:59:02;;;;;;;32.35;13.00;;;;;;;;;;5003384;28;20389;-67
2022/03/06 03:01:27;;;;;;;33.28;12.55;;;;;;;;;;4998266;28;20033;-67
2022/03/06 03:03:52;;;;;;;28.40;12.38;;;;;;;;;;4989619;28;20030;-69
2022/03/06 03:06:17;;;;;;;29.60;13.85;;;;;;;;;;4994938;28;20527;-67
2022/03/06 03:08:42;;;;;;;32.78;13.68;;;;;;;;;;4998219;28;20030;-68
2022/03/06 03:11:08;;;;;;;32.13;12.23;;;;;;;;;;4994468;28;20022;-67
2022/03/06 03:13:33;;;;;;;32.13;12.68;;;;;;;;;;4994934;28;20026;-67
2022/03/06 03:15:58;;;;;;;33.45;13.00;;;;;;;;;;4997863;28;20034;-67
2022/03/06 03:18:24;;;;;;;32.33;14.63;;;;;;;;;;4994701;28;20026;-67
2022/03/06 03:20:49;;;;;;;33.83;14.35;;;;;;;;;;4994243;28;20045;-67
2022/03/06 03:23:14;;;;;;;29.83;13.13;;;;;;;;;;4994885;28;20039;-67
2022/03/06 03:25:39;;;;;;;34.92;13.18;;;;;;;;;;4994373;28;20050;-67
2022/03/06 03:28:05;;;;;;;33.70;13.65;;;;;;;;;;5003653;28;20547;-67
2022/03/06 03:30:30;;;;;;;31.58;13.43;;;;;;;;;;4998994;28;20026;-67
2022/03/06 03:32:55;;;;;;;32.85;12.65;;;;;;;;;;4994725;28;20018;-67
2022/03/06 03:35:20;;;;;;;34.60;13.63;;;;;;;;;;5005341;28;20351;-67
2022/03/06 03:37:46;;;;;;;38.70;14.10;;;;;;;;;;5000392;28;20021;-67
2022/03/06 03:40:11;;;;;;;31.95;13.35;;;;;;;;;;5009844;28;20029;-67
2022/03/06 03:42:36;;;;;;;31.13;13.35;;;;;;;;;;5007439;28;20108;-67
2022/03/06 03:45:03;;;;;;;38.03;12.65;;;;;;;;;;4994193;28;20026;-67
2022/03/06 03:47:28;;;;;;;32.08;14.30;;;;;;;;;;4980944;28;20022;-67
2022/03/06 03:49:53;;;;;;;35.88;13.38;;;;;;;;;;4993671;28;20620;-67
2022/03/06 03:52:19;;;;;;;30.67;13.52;;;;;;;;;;4991819;28;20039;-67
2022/03/06 03:54:44;;;;;;;34.20;13.80;;;;;;;;;;5002564;28;20037;-67
2022/03/06 03:57:10;;;;;;;32.72;13.73;;;;;;;;;;5003751;28;20049;-67
2022/03/06 03:59:35;;;;;;;29.20;12.73;;;;;;;;;;5009866;28;20065;-67
2022/03/06 04:02:00;;;;;;;36.00;13.50;;;;;;;;;;5002221;28;20034;-67
2022/03/06 04:04:26;;;;;;;29.58;13.63;;;;;;;;;;4995907;28;20023;-67
2022/03/06 04:06:51;;;;;;;36.70;14.40;;;;;;;;;;4992260;28;20033;-67
2022/03/06 04:09:16;;;;;;;30.90;12.52;;;;;;;;;;4997753;28;20045;-67
2022/03/06 04:11:42;;;;;;;32.97;13.93;;;;;;;;;;5003136;28;20023;-67
2022/03/06 04:14:07;;;;;;;30.63;12.98;;;;;;;;;;5004247;28;20045;-67
2022/03/06 04:16:32;;;;;;;34.05;13.38;;;;;;;;;;4995651;28;20053;-69
2022/03/06 04:18:57;;;;;;;34.17;13.23;;;;;;;;;;5007211;28;20180;-67
2022/03/06 04:21:22;;;;;;;35.22;13.15;;;;;;;;;;4998524;28;20471;-67
2022/03/06 04:23:47;;;;;;;31.50;14.07;;;;;;;;;;4993603;28;20045;-68
2022/03/06 04:26:13;;;;;;;38.25;14.73;;;;;;;;;;4993752;28;20029;-67
2022/03/06 04:28:38;;;;;;;28.92;13.20;;;;;;;;;;4993583;28;20456;-67
2022/03/06 04:31:03;;;;;;;32.83;14.48;;;;;;;;;;5002561;28;20084;-67
2022/03/06 04:33:28;;;;;;;34.47;15.23;;;;;;;;;;5002843;28;20379;-67
2022/03/06 04:35:53;;;;;;;32.63;13.35;;;;;;;;;;5001558;28;20040;-67
2022/03/06 04:38:19;;;;;;;33.80;13.65;;;;;;;;;;4997317;28;20025;-66
2022/03/06 04:40:46;;;;;;;30.98;13.10;;;;;;;;;;5001554;28;20029;-67
2022/03/06 04:43:11;;;;;;;39.88;14.63;;;;;;;;;;4992984;28;20022;-66
2022/03/06 04:45:36;;;;;;;33.60;12.82;;;;;;;;;;4992477;28;20025;-67
2022/03/06 04:48:01;;;;;;;37.28;12.85;;;;;;;;;;4992854;28;20036;-66
2022/03/06 04:50:27;;;;;;;31.60;12.80;;;;;;;;;;4993390;28;20085;-67
2022/03/06 04:52:52;;;;;;;31.50;13.40;;;;;;;;;;4992359;28;20026;-66
2022/03/06 04:55:17;;;;;;;32.50;12.77;;;;;;;;;;4993022;28;20030;-66
2022/03/06 04:57:46;;;;;;;30.52;12.02;;;;;;;;;;4992991;28;20042;-66
2022/03/06 05:00:11;;;;;;;34.15;12.88;;;;;;;;;;4994580;28;20029;-66
2022/03/06 05:02:37;;;;;;;32.13;13.68;;;;;;;;;;4994505;28;20030;-66
2022/03/06 05:05:02;;;;;;;29.73;12.38;;;;;;;;;;4992358;28;20023;-66
2022/03/06 05:07:27;;;;;;;28.70;12.38;;;;;;;;;;4992756;28;20105;-66
2022/03/06 05:09:52;;;;;;;27.10;12.25;;;;;;;;;;4993618;28;20109;-66
2022/03/06 05:12:17;;;;;;;32.35;13.07;;;;;;;;;;5012217;28;20021;-66
2022/03/06 05:14:43;;;;;;;36.97;14.20;;;;;;;;;;5008744;28;20534;-66
2022/03/06 05:17:08;;;;;;;32.17;12.68;;;;;;;;;;5007300;28;20574;-66
2022/03/06 05:19:33;;;;;;;28.33;13.07;;;;;;;;;;4998878;28;20049;-66
2022/03/06 05:21:58;;;;;;;31.10;13.32;;;;;;;;;;4992790;28;20038;-66
2022/03/06 05:24:23;;;;;;;30.67;12.98;;;;;;;;;;4992402;28;20117;-66
2022/03/06 05:26:48;;;;;;;34.08;12.82;;;;;;;;;;4999830;28;20029;-66
2022/03/06 05:29:14;;;;;;;31.67;14.43;;;;;;;;;;5011772;28;20018;-66
2022/03/06 05:31:39;;;;;;;29.63;12.60;;;;;;;;;;5008722;28;20022;-66
2022/03/06 05:34:04;;;;;;;34.05;14.20;;;;;;;;;;5000009;28;20038;-67
2022/03/06 05:36:29;;;;;;;32.03;13.15;;;;;;;;;;5010225;28;20026;-66
2022/03/06 05:38:54;;;;;;;31.20;13.32;;;;;;;;;;4996217;28;20026;-66
2022/03/06 05:41:20;;;;;;;34.03;12.55;;;;;;;;;;5004898;28;20026;-66
2022/03/06 05:43:45;;;;;;;32.10;12.75;;;;;;;;;;4991907;28;20033;-66
2022/03/06 05:46:10;;;;;;;31.63;13.70;;;;;;;;;;5002583;28;20035;-66
2022/03/06 05:48:35;;;;;;;31.27;13.98;;;;;;;;;;4990515;28;20499;-66
2022/03/06 05:51:02;;;;;;;30.42;11.77;;;;;;;;;;4991807;28;20034;-66
2022/03/06 05:53:27;;;;;;;34.33;12.70;;;;;;;;;;4991315;28;20025;-67
2022/03/06 05:55:52;;;;;;;36.85;13.35;;;;;;;;;;4992044;28;20018;-66
2022/03/06 05:58:17;;;;;;;34.17;13.07;;;;;;;;;;4999477;28;20026;-67
2022/03/06 06:00:42;;;;;;;29.95;12.13;;;;;;;;;;4992613;28;20478;-66
2022/03/06 06:03:08;;;;;;;29.50;13.45;;;;;;;;;;4996704;28;20455;-67
2022/03/06 06:05:33;;;;;;;34.40;12.68;;;;;;;;;;5002753;28;20026;-66
2022/03/06 06:07:58;;;;;;;27.67;12.95;;;;;;;;;;4991299;28;20041;-66
2022/03/06 06:10:23;;;;;;;33.25;12.98;;;;;;;;;;4992628;28;20056;-66
2022/03/06 06:12:48;;;;;;;29.02;13.07;;;;;;;;;;4991070;28;20021;-67
2022/03/06 06:15:14;;;;;;;29.45;12.90;;;;;;;;;;4990656;28;20438;-67
2022/03/06 06:17:39;;;;;;;33.03;12.48;;;;;;;;;;4990616;28;20058;-66
2022/03/06 06:20:05;;;;;;;36.53;14.63;;;;;;;;;;4990050;28;20397;-67
2022/03/06 06:22:31;;;;;;;30.42;12.70;;;;;;;;;;5001554;28;20022;-67
2022/03/06 06:24:57;;;;;;;34.58;12.57;;;;;;;;;;4990366;28;20022;-67
2022/03/06 06:27:22;;;;;;;33.70;13.00;;;;;;;;;;4985127;28;20398;-67
2022/03/06 06:29:48;;;;;;;28.17;14.13;;;;;;;;;;4986851;28;20069;-66
2022/03/06 06:32:13;;;;;;;33.55;12.60;;;;;;;;;;4983622;28;20026;-66
2022/03/06 06:34:39;;;;;;;29.38;12.00;;;;;;;;;;4984443;28;20061;-66
2022/03/06 06:37:04;;;;;;;36.03;11.98;;;;;;;;;;4987190;28;20054;-66
2022/03/06 06:39:29;;;;;;;33.10;12.65;;;;;;;;;;4987628;28;20474;-66
2022/03/06 06:41:54;;;;;;;33.88;12.90;;;;;;;;;;4992577;28;20488;-66
2022/03/06 06:44:19;;;;;;;32.13;13.55;;;;;;;;;;4992080;28;20019;-66
2022/03/06 06:46:45;;;;;;;30.75;12.30;;;;;;;;;;4993448;28;20080;-66
2022/03/06 06:49:10;;;;;;;30.80;13.43;;;;;;;;;;4989856;28;20029;-66
2022/03/06 06:51:36;;;;;;;31.33;13.15;;;;;;;;;;4990187;28;20110;-66
2022/03/06 06:54:01;;;;;;;28.27;11.40;;;;;;;;;;4990491;28;20030;-67
2022/03/06 06:56:26;;;;;;;31.48;14.57;;;;;;;;;;4984576;28;20403;-67
2022/03/06 06:58:51;;;;;;;33.60;13.63;;;;;;;;;;4986430;28;20062;-66
2022/03/06 07:01:17;;;;;;;29.73;13.35;;;;;;;;;;4990368;28;20394;-67
2022/03/06 07:03:42;;;;;;;29.88;12.60;;;;;;;;;;4990297;28;20031;-66
2022/03/06 07:06:08;;;;;;;34.97;15.15;;;;;;;;;;4989239;28;20053;-67
2022/03/06 07:08:33;;;;;;;31.15;13.98;;;;;;;;;;4990386;28;20025;-67
2022/03/06 07:10:58;;;;;;;35.55;13.85;;;;;;;;;;4990340;28;20037;-66
2022/03/06 07:13:23;;;;;;;33.60;14.27;;;;;;;;;;4990608;28;20053;-67
2022/03/06 07:15:48;;;;;;;34.75;14.48;;;;;;;;;;4990271;28;20064;-67
2022/03/06 07:18:14;;;;;;;35.70;12.75;;;;;;;;;;4989932;28;20027;-68
2022/03/06 07:20:39;;;;;;;23.17;10.15;;;;;;;;;;4983015;28;20026;-66
2022/03/06 07:23:04;;;;;;;34.63;11.75;;;;;;;;;;4989308;28;20053;-67
2022/03/06 07:25:31;;;;;;;27.90;11.73;;;;;;;;;;4988602;28;20446;-68
2022/03/06 07:27:56;;;;;;;41.03;16.15;;;;;;;;;;4987231;28;20033;-67
2022/03/06 07:30:21;;;;;;;39.83;15.55;;;;;;;;;;4987918;28;20230;-69
2022/03/06 07:32:48;;;;;;;36.63;14.80;;;;;;;;;;4988530;28;20057;-68
2022/03/06 07:35:14;;;;;;;37.03;16.30;;;;;;;;;;4988327;28;20030;-68
2022/03/06 07:37:40;;;;;;;30.70;13.77;;;;;;;;;;4994577;28;20053;-67
2022/03/06 07:40:06;;;;;;;36.33;15.48;;;;;;;;;;4988772;28;20113;-67
2022/03/06 07:42:31;;;;;;;31.38;12.73;;;;;;;;;;4989999;28;20478;-66
2022/03/06 07:44:56;;;;;;;36.40;14.88;;;;;;;;;;5006818;28;20022;-68
2022/03/06 07:47:21;;;;;;;35.63;15.07;;;;;;;;;;4987271;28;20030;-67
2022/03/06 07:49:47;;;;;;;32.65;13.60;;;;;;;;;;4987658;28;20041;-68
2022/03/06 07:52:12;;;;;;;39.15;16.10;;;;;;;;;;4988189;28;20102;-68
2022/03/06 07:54:37;;;;;;;38.78;16.30;;;;;;;;;;4986931;28;20403;-68
2022/03/06 07:57:03;;;;;;;40.47;15.32;;;;;;;;;;4991883;28;20033;-67
2022/03/06 07:59:28;;;;;;;35.25;15.73;;;;;;;;;;4991260;28;20101;-68
2022/03/06 08:01:53;;;;;;;38.63;16.98;;;;;;;;;;4992348;28;20340;-67
2022/03/06 08:04:19;;;;;;;45.90;19.92;;;;;;;;;;4991597;28;20836;-67
2022/03/06 08:06:45;;;;;;;34.05;16.42;;;;;;;;;;4994415;28;20045;-67
2022/03/06 08:09:10;;;;;;;35.10;15.85;;;;;;;;;;4993631;28;20038;-67
2022/03/06 08:11:35;;;;;;;32.20;16.55;;;;;;;;;;4993426;28;20497;-67
2022/03/06 08:14:00;;;;;;;35.60;16.00;;;;;;;;;;4993537;28;20077;-67
2022/03/06 08:16:25;;;;;;;32.53;17.50;;;;;;;;;;4993573;28;20030;-68
2022/03/06 08:18:51;;;;;;;36.15;17.45;;;;;;;;;;4993425;28;20065;-69
2022/03/06 08:21:16;;;;;;;35.45;18.50;;;;;;;;;;4993255;28;20512;-69
2022/03/06 08:23:41;;;;;;;36.93;19.40;;;;;;;;;;4993734;28;20026;-69
2022/03/06 08:26:06;;;;;;;32.93;17.00;;;;;;;;;;4993456;28;20272;-69
2022/03/06 08:28:31;;;;;;;35.00;17.75;;;;;;;;;;4992908;28;20355;-68
2022/03/06 08:30:57;;;;;;;33.95;16.85;;;;;;;;;;4993284;28;20113;-68
2022/03/06 08:33:22;;;;;;;33.97;17.50;;;;;;;;;;4993316;28;20029;-68
2022/03/06 08:35:47;;;;;;;36.90;18.55;;;;;;;;;;4993183;28;20014;-69
2022/03/06 08:38:12;;;;;;;36.17;16.77;;;;;;;;;;4992932;28;20100;-69
2022/03/06 08:40:37;;;;;;;31.73;16.90;;;;;;;;;;4992633;28;20106;-69
2022/03/06 08:43:02;;;;;;;34.60;17.53;;;;;;;;;;5005487;28;20261;-69
2022/03/06 08:45:28;;;;;;;38.35;16.58;;;;;;;;;;5004036;28;20289;-66
2022/03/06 08:47:53;;;;;;;32.33;18.10;;;;;;;;;;4993421;28;20150;-69
2022/03/06 08:50:18;;;;;;;32.92;17.15;;;;;;;;;;5006898;28;20300;-69
2022/03/06 08:52:43;;;;;;;35.27;17.30;;;;;;;;;;4994788;28;20038;-69
2022/03/06 08:55:09;;;;;;;34.03;17.35;;;;;;;;;;4994885;28;20266;-69
2022/03/06 08:57:34;;;;;;;31.73;15.35;;;;;;;;;;4996027;28;20022;-69
2022/03/06 08:59:59;;;;;;;30.70;16.13;;;;;;;;;;4995723;28;20032;-69
2022/03/06 09:02:24;;;;;;;33.13;16.30;;;;;;;;;;4997832;28;20239;-69
2022/03/06 09:04:50;;;;;;;29.95;17.20;;;;;;;;;;4994159;28;20018;-69
2022/03/06 09:07:15;;;;;;;33.03;16.08;;;;;;;;;;5010942;28;20018;-69
2022/03/06 09:09:40;;;;;;;33.15;17.63;;;;;;;;;;4992336;28;20019;-68
2022/03/06 09:12:06;;;;;;;36.67;16.73;;;;;;;;;;4994888;28;20057;-68
2022/03/06 09:14:31;;;;;;;34.97;16.85;;;;;;;;;;4994133;28;20040;-68
2022/03/06 09:16:56;;;;;;;32.88;19.10;;;;;;;;;;4996663;28;20017;-68
2022/03/06 09:19:21;;;;;;;31.93;16.57;;;;;;;;;;4992339;28;20466;-68
2022/03/06 09:21:46;;;;;;;34.63;17.35;;;;;;;;;;4993581;28;20270;-68
2022/03/06 09:24:12;;;;;;;32.88;17.85;;;;;;;;;;4998674;28;20048;-68
2022/03/06 09:26:37;;;;;;;30.85;15.65;;;;;;;;;;5006404;28;20014;-68
2022/03/06 09:29:04;;;;;;;32.70;17.10;;;;;;;;;;4998169;28;20030;-68
2022/03/06 09:31:29;;;;;;;26.80;14.80;;;;;;;;;;4999099;28;20157;-68
2022/03/06 09:33:54;;;;;;;36.13;17.25;;;;;;;;;;4992302;28;20105;-68
2022/03/06 09:36:19;;;;;;;35.40;17.50;;;;;;;;;;4988035;28;20502;-68
2022/03/06 09:38:44;;;;;;;32.63;16.07;;;;;;;;;;4994583;28;20088;-69
2022/03/06 09:41:14;;;;;;;31.02;16.25;;;;;;;;;;4992597;28;20261;-69
2022/03/06 09:43:40;;;;;;;28.95;15.50;;;;;;;;;;4992745;28;20041;-69
2022/03/06 09:46:06;;;;;;;30.70;17.00;;;;;;;;;;4992521;28;20026;-69
2022/03/06 09:48:32;;;;;;;30.00;16.30;;;;;;;;;;4991486;28;20495;-69
2022/03/06 09:50:57;;;;;;;28.25;14.60;;;;;;;;;;4991374;28;20026;-70
2022/03/06 09:53:22;;;;;;;30.80;14.77;;;;;;;;;;4991125;28;20037;-68
2022/03/06 09:55:48;;;;;;;30.88;14.95;;;;;;;;;;4990755;28;20105;-68
2022/03/06 09:58:14;;;;;;;31.85;14.80;;;;;;;;;;4990014;28;20031;-68
2022/03/06 10:00:39;;;;;;;37.78;17.85;;;;;;;;;;4990870;28;20022;-68
2022/03/06 10:03:05;;;;;;;32.42;17.23;;;;;;;;;;4986544;28;20033;-68
2022/03/06 10:05:30;;;;;;;29.50;15.77;;;;;;;;;;4988215;28;20478;-69
2022/03/06 10:08:15;;;;;;;29.85;15.13;;;;;;;;;;4987058;28;20049;-69
2022/03/06 10:10:40;;;;;;;32.08;15.98;;;;;;;;;;4990089;28;20041;-69
2022/03/06 10:13:07;;;;;;;33.17;16.17;;;;;;;;;;4990764;28;20022;-69
2022/03/06 10:15:32;;;;;;;29.40;15.18;;;;;;;;;;4990226;28;20030;-69
2022/03/06 10:18:01;;;;;;;30.58;16.27;;;;;;;;;;4987458;28;20080;-69
2022/03/06 10:20:28;;;;;;;30.85;15.43;;;;;;;;;;4989112;28;20502;-69
2022/03/06 10:22:53;;;;;;;27.90;14.98;;;;;;;;;;4989560;28;20026;-69
2022/03/06 10:25:20;;;;;;;36.15;14.38;;;;;;;;;;4988850;28;20029;-69
2022/03/06 10:27:46;;;;;;;32.88;15.98;;;;;;;;;;4989437;28;20022;-69
2022/03/06 10:30:23;;;;;;;33.75;15.57;;;;;;;;;;4988084;28;20494;-69
2022/03/06 10:32:48;;;;;;;29.95;14.57;;;;;;;;;;4988962;28;20026;-69
2022/03/06 10:35:13;;;;;;;30.45;16.98;;;;;;;;;;4991242;28;20479;-69
2022/03/06 10:37:39;;;;;;;32.53;17.88;;;;;;;;;;4989475;28;20030;-69
2022/03/06 10:40:04;;;;;;;33.67;15.88;;;;;;;;;;4989647;28;20030;-69
2022/03/06 10:42:29;;;;;;;29.27;13.88;;;;;;;;;;4981681;28;20018;-69
2022/03/06 10:44:54;;;;;;;32.08;15.38;;;;;;;;;;4989393;28;20180;-69
2022/03/06 10:47:20;;;;;;;28.95;14.10;;;;;;;;;;4989995;28;20030;-68
2022/03/06 10:49:58;;;;;;;32.13;15.00;;;;;;;;;;4990356;28;20049;-69
2022/03/06 10:52:23;;;;;;;31.67;15.18;;;;;;;;;;4990665;28;21431;-69
2022/03/06 10:54:48;;;;;;;33.88;15.35;;;;;;;;;;4988571;28;20019;-70
2022/03/06 10:57:14;;;;;;;24.90;13.10;;;;;;;;;;4986003;28;20070;-70
2022/03/06 10:59:40;;;;;;;30.75;14.10;;;;;;;;;;4997391;28;20650;-69
2022/03/06 11:02:06;;;;;;;30.13;15.52;;;;;;;;;;4989791;28;20034;-69
2022/03/06 11:04:31;;;;;;;31.85;16.30;;;;;;;;;;5008495;28;20022;-69
2022/03/06 11:06:56;;;;;;;28.70;14.00;;;;;;;;;;4998813;28;20030;-69
2022/03/06 11:09:21;;;;;;;31.67;14.20;;;;;;;;;;4988129;28;20072;-70
2022/03/06 11:11:48;;;;;;;29.95;14.63;;;;;;;;;;4988747;28;20025;-70
2022/03/06 11:14:13;;;;;;;25.77;13.98;;;;;;;;;;4989677;28;20018;-70
2022/03/06 11:16:39;;;;;;;26.88;13.70;;;;;;;;;;4989385;28;20065;-70
2022/03/06 11:19:05;;;;;;;24.83;13.82;;;;;;;;;;4990081;28;20443;-70
2022/03/06 11:21:34;;;;;;;26.70;14.18;;;;;;;;;;4982613;28;20026;-70
2022/03/06 11:24:01;;;;;;;29.80;13.20;;;;;;;;;;4990370;28;20035;-69
2022/03/06 11:26:38;;;;;;;30.27;15.23;;;;;;;;;;4987806;28;20125;-70
2022/03/06 11:29:22;;;;;;;30.33;16.77;;;;;;;;;;4992201;28;20026;-70
2022/03/06 11:31:48;;;;;;;30.58;16.35;;;;;;;;;;4990812;28;20027;-68
2022/03/06 11:34:24;;;;;;;35.22;15.45;;;;;;;;;;4993192;28;20034;-69
2022/03/06 11:36:50;;;;;;;30.27;16.40;;;;;;;;;;4993553;28;20036;-68
2022/03/06 11:39:35;;;;;;;30.10;15.75;;;;;;;;;;4993798;28;20030;-68
2022/03/06 11:42:04;;;;;;;25.63;14.65;;;;;;;;;;4996354;28;20105;-68
2022/03/06 11:44:34;;;;;;;26.13;14.05;;;;;;;;;;4993291;28;20030;-70
2022/03/06 11:46:59;;;;;;;29.88;15.05;;;;;;;;;;4993824;28;20030;-70
2022/03/06 11:49:32;;;;;;;33.38;14.77;;;;;;;;;;4993951;28;20375;-68
2022/03/06 11:51:57;;;;;;;31.00;14.55;;;;;;;;;;4995745;28;20024;-70
2022/03/06 11:54:24;;;;;;;33.05;15.98;;;;;;;;;;4995026;28;20101;-70
2022/03/06 11:56:51;;;;;;;25.75;14.00;;;;;;;;;;4997750;28;20014;-70
2022/03/06 11:59:16;;;;;;;24.67;12.20;;;;;;;;;;5014833;28;20101;-68
2022/03/06 12:01:42;;;;;;;25.33;12.40;;;;;;;;;;4987418;28;20145;-71
2022/03/06 12:04:14;;;;;;;24.42;12.38;;;;;;;;;;4994056;28;20045;-68
2022/03/06 12:06:42;;;;;;;24.67;12.57;;;;;;;;;;4997533;28;20026;-68
2022/03/06 12:09:21;;;;;;;26.67;11.93;;;;;;;;;;4993677;28;20022;-68
2022/03/06 12:11:47;;;;;;;21.00;11.57;;;;;;;;;;5000100;28;20213;-68
2022/03/06 12:14:34;;;;;;;24.33;11.95;;;;;;;;;;5013479;28;20022;-69
2022/03/06 12:17:02;;;;;;;23.13;12.38;;;;;;;;;;4992894;28;20045;-68
2022/03/06 12:19:27;;;;;;;31.77;16.30;;;;;;;;;;4994150;28;20018;-68
2022/03/06 12:21:52;;;;;;;28.67;15.07;;;;;;;;;;4993605;28;20019;-68
2022/03/06 12:24:27;;;;;;;32.90;15.27;;;;;;;;;;4998875;28;20269;-68
2022/03/06 12:26:53;;;;;;;25.73;14.68;;;;;;;;;;5000548;28;20109;-68
2022/03/06 12:29:38;;;;;;;23.88;12.40;;;;;;;;;;4998175;28;20026;-68
2022/03/06 12:32:40;;;;;;;23.00;11.55;;;;;;;;;;4987947;28;20042;-69
2022/03/06 12:35:05;;;;;;;24.25;11.80;;;;;;;;;;4971566;28;20034;-70
2022/03/06 12:37:33;;;;;;;21.73;11.45;;;;;;;;;;4984058;28;20041;-69
2022/03/06 12:39:59;;;;;;;22.70;11.75;;;;;;;;;;4992552;28;20474;-69
2022/03/06 12:42:28;;;;;;;20.95;11.13;;;;;;;;;;4993728;28;20033;-69
2022/03/06 12:44:55;;;;;;;22.92;11.57;;;;;;;;;;4993764;28;20479;-69
2022/03/06 12:47:21;;;;;;;23.15;11.73;;;;;;;;;;4987028;28;20035;-69
2022/03/06 12:49:49;;;;;;;20.38;11.43;;;;;;;;;;4976453;28;20533;-69
2022/03/06 12:52:18;;;;;;;17.52;10.52;;;;;;;;;;4993538;28;20026;-69
2022/03/06 12:54:44;;;;;;;22.00;11.45;;;;;;;;;;4991514;28;20054;-70
2022/03/06 12:57:10;;;;;;;19.23;10.95;;;;;;;;;;4991576;28;20060;-70
2022/03/06 12:59:39;;;;;;;19.13;11.13;;;;;;;;;;4993118;28;20022;-70
2022/03/06 13:02:05;;;;;;;22.38;11.27;;;;;;;;;;4993443;28;20018;-70
2022/03/06 13:04:31;;;;;;;18.48;11.27;;;;;;;;;;4992735;28;20364;-70
2022/03/06 13:06:56;;;;;;;18.63;11.15;;;;;;;;;;4993096;28;20025;-70
2022/03/06 13:09:22;;;;;;;18.80;10.05;;;;;;;;;;4992492;28;20026;-70
2022/03/06 13:11:49;;;;;;;19.88;10.82;;;;;;;;;;4992978;28;20025;-70
2022/03/06 13:14:15;;;;;;;18.20;10.65;;;;;;;;;;4993071;28;20031;-71
2022/03/06 13:16:40;;;;;;;21.95;11.02;;;;;;;;;;4994971;28;20036;-71
2022/03/06 13:19:06;;;;;;;21.48;11.55;;;;;;;;;;4991260;28;20089;-70
2022/03/06 13:21:32;;;;;;;22.02;10.98;;;;;;;;;;4992688;28;20028;-70
2022/03/06 13:23:59;;;;;;;17.23;10.38;;;;;;;;;;4992320;28;20483;-71
2022/03/06 13:26:28;;;;;;;17.50;10.88;;;;;;;;;;4992597;28;20041;-71
2022/03/06 13:28:54;;;;;;;17.38;10.85;;;;;;;;;;4987008;28;20026;-70
2022/03/06 13:31:19;;;;;;;16.60;11.05;;;;;;;;;;4992503;28;20018;-70
2022/03/06 13:33:44;;;;;;;19.50;10.93;;;;;;;;;;4992298;28;20030;-71
2022/03/06 13:36:13;;;;;;;18.73;10.80;;;;;;;;;;4991572;28;20026;-70
2022/03/06 13:38:38;;;;;;;21.33;10.82;;;;;;;;;;4992567;28;20261;-71
2022/03/06 13:41:09;;;;;;;18.60;10.55;;;;;;;;;;4992598;28;20084;-71
2022/03/06 13:43:36;;;;;;;22.05;11.02;;;;;;;;;;4992168;28;20034;-71
2022/03/06 13:46:01;;;;;;;18.60;10.85;;;;;;;;;;4991938;28;20453;-71
2022/03/06 13:48:31;;;;;;;18.48;10.43;;;;;;;;;;4997825;28;20054;-71
2022/03/06 13:50:57;;;;;;;17.00;10.45;;;;;;;;;;4990162;28;20026;-71
2022/03/06 13:53:22;;;;;;;17.50;10.95;;;;;;;;;;4991847;28;20018;-71
2022/03/06 13:55:49;;;;;;;18.50;10.98;;;;;;;;;;4991500;28;20425;-71
2022/03/06 13:58:18;;;;;;;21.58;10.93;;;;;;;;;;4991995;28;20105;-71
2022/03/06 14:01:02;;;;;;;15.63;9.73;;;;;;;;;;4989730;28;20027;-71
2022/03/06 14:03:32;;;;;;;18.52;10.63;;;;;;;;;;4990636;28;20113;-71
2022/03/06 14:05:58;;;;;;;19.23;9.48;;;;;;;;;;4990131;28;20537;-72
2022/03/06 14:08:25;;;;;;;14.95;10.00;;;;;;;;;;4989460;28;20056;-72
2022/03/06 14:10:51;;;;;;;19.05;11.05;;;;;;;;;;4989725;28;20026;-71
2022/03/06 14:13:20;;;;;;;16.35;10.73;;;;;;;;;;5006351;28;20018;-71
2022/03/06 14:15:46;;;;;;;14.50;9.60;;;;;;;;;;4991240;28;20049;-72